Weather at Munich Airport

Public forecast

Using degrees Celsius for public forecast. Weather courtesy of forecast.io.

Current aviation weather report (METAR) for Munich Airport

Retrieved 2021/05/06 07:20 UTC (3 minutes ago):

EDDM 060720Z 21008KT 9999 FEW030 08/03 Q1012 NOSIG

Aviation forecast (TAF) for Munich Airport

Retrieved 2021/05/06 06:27 UTC (56 minutes ago):

TAF EDDM 060500Z 0606/0712 24011KT 9999 SCT030 TEMPO 0614/0619 RA TEMPO 0619/0624 SHRA BKN020CB BECMG 0623/0624 25015G25KT PROB40 TEMPO 0701/0712 25020G30KT